createdAt,value
2018-08-06T00:03:48.701Z,60.40
2018-08-06T00:08:46.797Z,61.70
2018-08-06T00:11:15.975Z,61.70
2018-08-06T00:13:45.325Z,62.20
2018-08-06T00:16:14.488Z,62.20
2018-08-06T00:18:43.661Z,62.50
2018-08-06T00:21:12.828Z,62.70
2018-08-06T00:23:42.009Z,62.50
2018-08-06T00:26:11.194Z,62.50
2018-08-06T00:28:40.349Z,62.70
2018-08-06T00:31:09.590Z,62.50
2018-08-06T00:33:38.752Z,62.70
2018-08-06T00:38:36.886Z,63.20
2018-08-06T00:41:06.062Z,62.90
2018-08-06T00:43:35.271Z,63.20
2018-08-06T00:46:04.512Z,63.30
2018-08-06T00:48:33.697Z,63.30
2018-08-06T00:51:02.870Z,63.20
2018-08-06T00:53:32.025Z,63.60
2018-08-06T00:56:01.194Z,63.70
2018-08-06T00:58:30.372Z,63.60
2018-08-06T01:00:59.529Z,63.70
2018-08-06T01:03:28.705Z,63.70
2018-08-06T01:05:57.928Z,63.70
2018-08-06T01:08:27.093Z,63.70
2018-08-06T01:10:56.251Z,63.90
2018-08-06T01:13:25.429Z,63.90
2018-08-06T01:15:54.937Z,64.30
2018-08-06T01:18:24.097Z,64.10
2018-08-06T01:20:53.285Z,64.20
2018-08-06T01:23:22.705Z,64.20
2018-08-06T01:25:51.859Z,63.60
2018-08-06T01:28:21.013Z,64.30
2018-08-06T01:30:50.180Z,64.60
2018-08-06T01:33:19.340Z,64.40
2018-08-06T01:35:48.524Z,64.40
2018-08-06T01:38:17.693Z,64.00
2018-08-06T01:40:46.853Z,64.50
2018-08-06T01:43:16.029Z,64.70
2018-08-06T01:45:45.195Z,64.80
2018-08-06T01:48:14.345Z,65.20
2018-08-06T01:50:43.501Z,65.00
2018-08-06T01:53:12.650Z,65.20
2018-08-06T01:55:41.821Z,65.30
2018-08-06T01:58:10.983Z,65.10
2018-08-06T02:00:40.460Z,65.50
2018-08-06T02:03:09.629Z,65.80
2018-08-06T02:05:38.777Z,65.10
2018-08-06T02:08:07.961Z,65.60
2018-08-06T02:10:37.124Z,65.70
2018-08-06T02:13:06.453Z,65.70
2018-08-06T02:15:35.633Z,66.00
2018-08-06T02:18:04.960Z,65.60
2018-08-06T02:20:34.125Z,66.10
2018-08-06T02:25:32.263Z,65.70
2018-08-06T02:28:01.433Z,66.20
2018-08-06T02:30:30.610Z,66.60
2018-08-06T02:32:59.780Z,66.60
2018-08-06T02:35:28.965Z,65.80
2018-08-06T02:37:58.116Z,66.90
2018-08-06T02:40:27.301Z,67.20
2018-08-06T02:42:56.773Z,66.90
2018-08-06T02:45:25.929Z,66.30
2018-08-06T02:47:55.089Z,66.60
2018-08-06T02:50:24.417Z,66.50
2018-08-06T02:52:53.581Z,66.80
2018-08-06T02:55:22.736Z,66.70
2018-08-06T02:57:51.906Z,66.70
2018-08-06T03:00:21.078Z,66.20
2018-08-06T03:02:50.249Z,66.80
2018-08-06T03:05:20.199Z,66.50
2018-08-06T03:07:49.861Z,66.50
2018-08-06T03:10:19.057Z,67.00
2018-08-06T03:12:48.397Z,66.70
2018-08-06T03:15:17.569Z,67.30
2018-08-06T03:17:46.721Z,66.90
2018-08-06T03:20:16.117Z,67.10
2018-08-06T03:22:45.305Z,67.30
2018-08-06T03:25:16.364Z,66.80
2018-08-06T03:27:45.954Z,67.10
2018-08-06T03:30:17.033Z,68.30
2018-08-06T03:32:48.234Z,67.90
2018-08-06T03:35:16.664Z,67.40
2018-08-06T03:37:45.817Z,67.50
2018-08-06T03:40:15.087Z,66.80
2018-08-06T03:42:44.180Z,67.50
2018-08-06T03:45:13.504Z,68.50
2018-08-06T03:47:43.325Z,67.70
2018-08-06T03:50:13.750Z,67.40
2018-08-06T03:52:43.290Z,67.50
2018-08-06T03:55:12.745Z,68.00
2018-08-06T03:57:42.161Z,68.00
2018-08-06T04:00:13.592Z,68.00
2018-08-06T04:02:43.316Z,68.00
2018-08-06T04:05:13.664Z,68.30
2018-08-06T04:07:42.841Z,68.10
2018-08-06T04:10:14.696Z,68.40
2018-08-06T04:12:43.877Z,68.60
2018-08-06T04:15:15.083Z,68.40
2018-08-06T04:17:44.733Z,68.80
2018-08-06T04:20:14.348Z,68.40
2018-08-06T04:22:44.074Z,68.60
2018-08-06T04:25:13.474Z,68.80
2018-08-06T04:27:44.150Z,68.40
2018-08-06T04:30:14.550Z,68.20
2018-08-06T04:32:44.880Z,69.10
2018-08-06T04:35:14.139Z,68.90
2018-08-06T04:37:44.025Z,69.00
2018-08-06T04:40:14.093Z,69.10
2018-08-06T04:42:43.672Z,69.00
2018-08-06T04:45:12.979Z,69.40
2018-08-06T04:47:44.163Z,69.30
2018-08-06T04:50:14.729Z,70.00
2018-08-06T04:52:45.125Z,69.20
2018-08-06T04:55:15.133Z,69.30
2018-08-06T04:57:44.307Z,69.20
2018-08-06T05:00:15.026Z,69.00
2018-08-06T05:02:44.745Z,69.60
2018-08-06T05:05:13.933Z,69.70
2018-08-06T05:07:43.121Z,69.60
2018-08-06T05:10:12.380Z,69.90
2018-08-06T05:12:41.533Z,70.00
2018-08-06T05:15:10.722Z,69.80
2018-08-06T05:17:39.972Z,69.90
2018-08-06T05:20:09.169Z,71.00
2018-08-06T05:22:38.333Z,70.10
2018-08-06T05:25:07.585Z,70.40
2018-08-06T05:27:36.816Z,70.80
2018-08-06T05:30:09.019Z,70.90
2018-08-06T05:32:38.195Z,70.20
2018-08-06T05:35:07.717Z,70.60
2018-08-06T05:37:36.920Z,70.50
2018-08-06T05:40:07.513Z,70.50
2018-08-06T05:42:37.145Z,69.90
2018-08-06T05:45:07.592Z,69.60
2018-08-06T05:47:37.069Z,68.80
2018-08-06T05:50:09.617Z,68.70
2018-08-06T05:52:38.805Z,68.10
2018-08-06T05:55:09.048Z,67.60
2018-08-06T05:57:38.468Z,67.60
2018-08-06T06:00:14.473Z,67.80
2018-08-06T06:02:44.366Z,68.00
2018-08-06T06:05:13.549Z,68.10
2018-08-06T06:07:43.045Z,69.00
2018-08-06T06:10:14.392Z,68.90
2018-08-06T06:12:43.561Z,69.30
2018-08-06T06:15:15.865Z,70.20
2018-08-06T06:17:45.237Z,70.40
2018-08-06T06:20:14.432Z,70.30
2018-08-06T06:22:43.589Z,70.20
2018-08-06T06:25:13.583Z,70.20
2018-08-06T06:27:43.160Z,71.30
2018-08-06T06:30:15.441Z,71.00
2018-08-06T06:32:44.636Z,71.20
2018-08-06T06:37:43.550Z,71.20
2018-08-06T06:40:12.721Z,71.80
2018-08-06T06:42:41.976Z,71.10
2018-08-06T06:45:11.425Z,71.80
2018-08-06T06:47:40.626Z,72.40
2018-08-06T06:50:10.041Z,72.70
2018-08-06T06:52:39.220Z,72.50
2018-08-06T06:55:10.956Z,72.40
2018-08-06T06:57:40.129Z,72.30
2018-08-06T07:00:10.554Z,72.40
2018-08-06T07:02:40.354Z,72.40
2018-08-06T07:05:09.721Z,71.90
2018-08-06T07:07:38.913Z,71.80
2018-08-06T07:10:10.674Z,72.20
2018-08-06T07:12:39.877Z,72.20
2018-08-06T07:15:14.294Z,71.90
2018-08-06T07:17:45.841Z,71.90
2018-08-06T07:20:16.570Z,72.40
2018-08-06T07:22:45.677Z,71.20
2018-08-06T07:25:14.884Z,70.80
2018-08-06T07:27:44.382Z,71.20
2018-08-06T07:32:44.303Z,70.00
2018-08-06T07:35:14.237Z,70.20
2018-08-06T07:37:43.697Z,71.40
2018-08-06T07:40:14.202Z,71.40
2018-08-06T07:42:43.356Z,70.00
2018-08-06T07:45:15.797Z,69.70
2018-08-06T07:47:45.429Z,70.20
2018-08-06T07:50:16.793Z,70.40
2018-08-06T07:52:46.002Z,70.80
2018-08-06T07:55:15.212Z,70.80
2018-08-06T07:57:44.449Z,69.80
2018-08-06T08:00:18.644Z,69.50
2018-08-06T08:02:47.828Z,68.90
2018-08-06T08:05:18.018Z,68.30
2018-08-06T08:07:47.901Z,68.30
2018-08-06T08:10:19.496Z,67.80
2018-08-06T08:12:48.684Z,68.50
2018-08-06T08:15:19.832Z,68.10
2018-08-06T08:17:49.009Z,68.00
2018-08-06T08:20:18.893Z,68.50
2018-08-06T08:22:47.932Z,66.40
2018-08-06T08:27:48.293Z,68.00
2018-08-06T08:30:18.196Z,67.00
2018-08-06T08:32:47.413Z,66.80
2018-08-06T08:35:17.193Z,64.30
2018-08-06T08:37:46.381Z,66.10
2018-08-06T08:40:18.020Z,67.20
2018-08-06T08:42:47.186Z,67.10
2018-08-06T08:45:17.672Z,66.90
2018-08-06T08:47:46.951Z,65.70
2018-08-06T08:50:18.425Z,64.80
2018-08-06T08:52:47.613Z,64.60
2018-08-06T08:55:18.568Z,63.30
2018-08-06T08:57:47.728Z,64.30
2018-08-06T09:00:19.973Z,63.80
2018-08-06T09:02:49.924Z,64.50
2018-08-06T09:05:19.628Z,65.80
2018-08-06T09:07:49.708Z,63.70
2018-08-06T09:10:19.454Z,64.10
2018-08-06T09:12:48.967Z,62.80
2018-08-06T09:15:21.959Z,63.30
2018-08-06T09:17:51.145Z,64.40
2018-08-06T09:20:20.397Z,63.40
2018-08-06T09:22:49.633Z,64.00
2018-08-06T09:25:18.803Z,62.90
2018-08-06T09:27:49.392Z,61.50
2018-08-06T09:30:20.725Z,62.20
2018-08-06T09:32:51.368Z,63.20
2018-08-06T09:35:20.969Z,62.30
2018-08-06T09:37:50.356Z,62.60
2018-08-06T09:40:20.607Z,62.40
2018-08-06T09:42:50.288Z,62.50
2018-08-06T09:45:20.929Z,59.20
2018-08-06T09:50:21.074Z,59.40
2018-08-06T09:52:51.294Z,60.10
2018-08-06T09:55:24.428Z,59.50
2018-08-06T09:57:54.197Z,60.30
2018-08-06T10:00:28.948Z,59.30
2018-08-06T10:02:59.449Z,58.60
2018-08-06T10:05:29.079Z,58.90
2018-08-06T10:07:58.244Z,54.30
2018-08-06T10:10:27.408Z,55.60
2018-08-06T10:12:56.595Z,57.90
2018-08-06T10:15:25.765Z,57.40
2018-08-06T10:17:55.557Z,55.70
2018-08-06T10:20:25.861Z,54.90
2018-08-06T10:22:55.041Z,55.80
2018-08-06T10:25:24.221Z,55.20
2018-08-06T10:27:53.373Z,54.80
2018-08-06T10:30:23.321Z,56.60
2018-08-06T10:32:52.525Z,53.00
2018-08-06T10:35:21.981Z,52.00
2018-08-06T10:37:51.160Z,53.50
2018-08-06T10:40:21.551Z,54.30
2018-08-06T10:42:50.689Z,54.80
2018-08-06T10:45:24.089Z,55.30
2018-08-06T10:47:53.640Z,55.20
2018-08-06T10:50:22.857Z,51.30
2018-08-06T10:52:52.033Z,53.00
2018-08-06T10:55:21.214Z,53.30
2018-08-06T10:57:50.396Z,51.30
2018-08-06T11:02:50.286Z,50.90
2018-08-06T11:05:19.921Z,51.80
2018-08-06T11:07:49.090Z,49.60
2018-08-06T11:10:19.569Z,50.60
2018-08-06T11:12:48.789Z,51.50
2018-08-06T11:15:20.312Z,52.40
2018-08-06T11:17:49.472Z,50.10
2018-08-06T11:20:19.447Z,50.30
2018-08-06T11:22:48.589Z,51.80
2018-08-06T11:25:20.010Z,51.10
2018-08-06T11:27:49.400Z,51.90
2018-08-06T11:30:21.430Z,51.20
2018-08-06T11:32:51.225Z,51.90
2018-08-06T11:35:20.541Z,51.00
2018-08-06T11:37:49.693Z,52.00
2018-08-06T11:40:19.136Z,49.70
2018-08-06T11:42:48.848Z,50.90
2018-08-06T11:45:19.280Z,50.40
2018-08-06T11:47:48.441Z,50.60
2018-08-06T11:50:17.629Z,48.70
2018-08-06T11:52:46.853Z,49.50
2018-08-06T11:55:16.046Z,49.20
2018-08-06T11:57:45.201Z,48.90
2018-08-06T12:00:20.141Z,48.80
2018-08-06T12:02:49.357Z,47.60
2018-08-06T12:05:18.565Z,48.00
2018-08-06T12:07:47.753Z,48.80
2018-08-06T12:10:18.203Z,47.90
2018-08-06T12:12:48.336Z,49.60
2018-08-06T12:15:17.527Z,48.60
2018-08-06T12:17:47.045Z,47.70
2018-08-06T12:20:18.205Z,48.10
2018-08-06T12:22:48.588Z,49.60
2018-08-06T12:25:18.209Z,49.00
2018-08-06T12:27:48.105Z,50.10
2018-08-06T12:30:20.337Z,51.00
2018-08-06T12:32:50.206Z,49.10
2018-08-06T12:35:19.490Z,48.50
2018-08-06T12:37:49.037Z,49.10
2018-08-06T12:40:19.518Z,49.90
2018-08-06T12:42:48.844Z,48.60
2018-08-06T12:45:18.397Z,48.70
2018-08-06T12:47:47.816Z,49.90
2018-08-06T12:50:17.554Z,49.80
2018-08-06T12:52:46.937Z,51.00
2018-08-06T12:55:17.284Z,52.00
2018-08-06T12:57:46.785Z,51.10
2018-08-06T13:00:23.685Z,50.00
2018-08-06T13:02:53.369Z,49.60
2018-08-06T13:05:23.274Z,49.00
2018-08-06T13:07:52.527Z,49.80
2018-08-06T13:10:21.681Z,49.50
2018-08-06T13:12:50.869Z,49.40
2018-08-06T13:15:20.036Z,48.00
2018-08-06T13:17:49.220Z,48.50
2018-08-06T13:20:18.404Z,48.70
2018-08-06T13:22:47.574Z,49.20
2018-08-06T13:25:16.781Z,49.00
2018-08-06T13:27:45.929Z,49.20
2018-08-06T13:30:15.983Z,48.20
2018-08-06T13:32:45.669Z,49.90
2018-08-06T13:35:15.833Z,48.20
2018-08-06T13:37:45.646Z,48.30
2018-08-06T13:40:14.793Z,47.70
2018-08-06T13:42:43.952Z,46.90
2018-08-06T13:45:14.143Z,47.50
2018-08-06T13:47:44.186Z,46.40
2018-08-06T13:50:13.524Z,46.80
2018-08-06T13:52:42.681Z,48.30
2018-08-06T13:55:12.965Z,46.10
2018-08-06T13:57:42.366Z,46.90
2018-08-06T14:00:17.605Z,46.50
2018-08-06T14:02:47.215Z,46.20
2018-08-06T14:05:17.365Z,47.00
2018-08-06T14:07:47.647Z,46.50
2018-08-06T14:10:17.297Z,46.20
2018-08-06T14:12:46.669Z,47.30
2018-08-06T14:17:44.953Z,45.30
2018-08-06T14:20:16.721Z,46.40
2018-08-06T14:25:14.820Z,47.10
2018-08-06T14:27:43.993Z,47.30
2018-08-06T14:30:15.959Z,45.90
2018-08-06T14:32:45.569Z,45.10
2018-08-06T14:35:15.377Z,45.80
2018-08-06T14:37:44.544Z,44.30
2018-08-06T14:40:17.423Z,45.10
2018-08-06T14:42:46.870Z,45.30
2018-08-06T14:45:16.155Z,45.60
2018-08-06T14:47:45.411Z,44.50
2018-08-06T14:50:15.386Z,45.80
2018-08-06T14:52:44.541Z,45.60
2018-08-06T14:55:13.765Z,44.80
2018-08-06T14:57:43.176Z,45.50
2018-08-06T15:00:17.981Z,44.80
2018-08-06T15:02:47.517Z,46.10
2018-08-06T15:05:16.677Z,45.00
2018-08-06T15:07:46.134Z,44.50
2018-08-06T15:10:15.836Z,45.40
2018-08-06T15:12:45.415Z,44.80
2018-08-06T15:15:15.745Z,45.10
2018-08-06T15:17:45.877Z,44.00
2018-08-06T15:20:16.284Z,43.70
2018-08-06T15:22:45.834Z,43.50
2018-08-06T15:25:20.353Z,44.30
2018-08-06T15:27:49.733Z,44.20
2018-08-06T15:30:18.933Z,43.80
2018-08-06T15:35:17.081Z,43.80
2018-08-06T15:37:46.243Z,44.20
2018-08-06T15:40:17.952Z,43.90
2018-08-06T15:42:47.193Z,44.50
2018-08-06T15:45:16.361Z,44.80
2018-08-06T15:47:46.507Z,44.80
2018-08-06T15:50:20.269Z,44.40
2018-08-06T15:52:49.794Z,44.70
2018-08-06T15:55:18.970Z,44.80
2018-08-06T15:57:48.129Z,44.70
2018-08-06T16:00:18.513Z,44.90
2018-08-06T16:02:48.121Z,43.90
2018-08-06T16:05:17.281Z,44.80
2018-08-06T16:07:46.696Z,43.80
2018-08-06T16:10:16.637Z,43.40
2018-08-06T16:12:45.792Z,44.30
2018-08-06T16:15:15.740Z,45.00
2018-08-06T16:17:45.348Z,43.60
2018-08-06T16:20:16.083Z,43.80
2018-08-06T16:22:45.272Z,43.80
2018-08-06T16:25:14.877Z,43.20
2018-08-06T16:27:44.072Z,44.00
2018-08-06T16:30:19.885Z,43.10
2018-08-06T16:32:49.441Z,43.50
2018-08-06T16:35:20.597Z,43.20
2018-08-06T16:37:51.484Z,42.90
2018-08-06T16:40:20.640Z,42.70
2018-08-06T16:42:50.638Z,43.20
2018-08-06T16:45:19.891Z,44.20
2018-08-06T16:47:49.045Z,44.00
2018-08-06T16:50:18.888Z,44.00
2018-08-06T16:52:48.485Z,42.70
2018-08-06T16:57:46.419Z,44.80
2018-08-06T17:00:22.601Z,44.10
2018-08-06T17:02:52.899Z,44.00
2018-08-06T17:05:22.322Z,44.30
2018-08-06T17:07:51.695Z,44.50
2018-08-06T17:10:21.821Z,44.50
2018-08-06T17:12:53.014Z,45.00
2018-08-06T17:15:22.697Z,50.40
2018-08-06T17:17:54.038Z,49.90
2018-08-06T17:20:23.848Z,49.10
2018-08-06T17:22:53.463Z,49.10
2018-08-06T17:25:22.647Z,48.00
2018-08-06T17:27:51.799Z,48.90
2018-08-06T17:30:20.977Z,49.10
2018-08-06T17:32:50.457Z,48.90
2018-08-06T17:35:19.634Z,49.10
2018-08-06T17:37:48.885Z,48.90
2018-08-06T17:40:19.181Z,49.40
2018-08-06T17:42:48.664Z,49.50
2018-08-06T17:45:21.008Z,49.90
2018-08-06T17:47:50.365Z,50.10
2018-08-06T17:50:21.175Z,49.40
2018-08-06T17:52:51.192Z,49.90
2018-08-06T17:55:21.309Z,50.50
2018-08-06T17:57:50.509Z,49.70
2018-08-06T18:00:20.208Z,49.60
2018-08-06T18:02:49.421Z,50.50
2018-08-06T18:05:19.127Z,51.30
2018-08-06T18:07:48.407Z,51.00
2018-08-06T18:10:18.258Z,51.20
2018-08-06T18:12:48.660Z,50.60
2018-08-06T18:15:17.836Z,50.50
2018-08-06T18:17:47.657Z,51.10
2018-08-06T18:20:18.422Z,51.20
2018-08-06T18:22:47.717Z,50.50
2018-08-06T18:25:18.457Z,50.60
2018-08-06T18:27:48.469Z,51.20
2018-08-06T18:30:22.278Z,51.70
2018-08-06T18:32:51.497Z,52.30
2018-08-06T18:35:21.008Z,52.10
2018-08-06T18:37:50.256Z,52.10
2018-08-06T18:40:20.604Z,52.10
2018-08-06T18:42:49.788Z,52.70
2018-08-06T18:45:20.130Z,52.20
2018-08-06T18:47:50.229Z,53.10
2018-08-06T18:50:19.879Z,53.40
2018-08-06T18:52:49.671Z,52.60
2018-08-06T18:55:19.168Z,52.90
2018-08-06T18:57:48.529Z,53.50
2018-08-06T19:00:21.157Z,53.80
2018-08-06T19:02:50.476Z,54.10
2018-08-06T19:05:19.667Z,53.70
2018-08-06T19:07:48.817Z,53.50
2018-08-06T19:10:18.037Z,53.70
2018-08-06T19:17:26.021Z,54.00
2018-08-06T19:19:55.314Z,53.80
2018-08-06T19:22:24.461Z,53.80
2018-08-06T19:25:29.283Z,53.40
2018-08-06T19:27:58.892Z,53.40
2018-08-06T19:30:33.236Z,53.70
2018-08-06T19:33:02.819Z,53.70
2018-08-06T19:35:32.009Z,53.90
2018-08-06T19:38:01.391Z,53.20
2018-08-06T19:40:30.885Z,53.20
2018-08-06T19:43:05.603Z,53.20
2018-08-06T19:45:35.016Z,52.90
2018-08-06T19:48:04.444Z,52.60
2018-08-06T19:50:38.222Z,52.50
2018-08-06T19:53:07.714Z,51.60
2018-08-06T19:55:42.103Z,52.00
2018-08-06T19:58:11.330Z,52.50
2018-08-06T20:00:40.489Z,52.20
2018-08-06T20:03:09.765Z,52.40
2018-08-06T20:05:39.113Z,52.40
2018-08-06T20:08:08.495Z,52.80
2018-08-06T20:10:37.679Z,52.90
2018-08-06T20:13:07.064Z,52.60
2018-08-06T20:15:36.256Z,53.10
2018-08-06T20:18:05.535Z,53.40
2018-08-06T20:20:34.688Z,53.90
2018-08-06T20:23:03.903Z,54.20
2018-08-06T20:25:33.113Z,54.30
2018-08-06T20:28:02.353Z,53.90
2018-08-06T20:30:31.585Z,54.40
2018-08-06T20:33:00.793Z,54.70
2018-08-06T20:35:30.015Z,54.70
2018-08-06T20:37:59.201Z,54.40
2018-08-06T20:40:28.384Z,54.20
2018-08-06T20:42:57.668Z,54.50
2018-08-06T20:45:26.852Z,54.40
2018-08-06T20:47:56.109Z,55.00
2018-08-06T20:50:25.386Z,54.10
2018-08-06T20:52:55.173Z,53.90
2018-08-06T20:55:24.390Z,54.10
2018-08-06T20:57:53.580Z,54.70
2018-08-06T21:00:24.427Z,54.70
2018-08-06T21:02:53.934Z,54.70
2018-08-06T21:05:23.130Z,54.70
2018-08-06T21:07:52.385Z,54.50
2018-08-06T21:10:21.706Z,53.40
2018-08-06T21:12:50.905Z,53.90
2018-08-06T21:15:20.128Z,53.00
2018-08-06T21:17:49.435Z,53.20
2018-08-06T21:20:19.629Z,53.40
2018-08-06T21:22:49.668Z,53.50
2018-08-06T21:25:18.957Z,53.40
2018-08-06T21:27:48.941Z,53.00
2018-08-06T21:32:54.808Z,51.60
2018-08-06T21:35:25.378Z,51.50
2018-08-06T21:37:55.270Z,51.20
2018-08-06T21:40:25.160Z,51.90
2018-08-06T21:45:23.416Z,50.10
2018-08-06T21:47:52.605Z,49.80
2018-08-06T21:50:21.777Z,50.00
2018-08-06T21:52:50.961Z,49.50
2018-08-06T21:55:20.130Z,50.10
2018-08-06T21:57:49.312Z,49.80
2018-08-06T22:00:29.725Z,49.60
2018-08-06T22:02:58.905Z,49.40
2018-08-06T22:05:28.105Z,49.40
2018-08-06T22:07:57.290Z,49.60
2018-08-06T22:10:26.489Z,49.60
2018-08-06T22:12:55.685Z,49.50
2018-08-06T22:15:24.930Z,50.20
2018-08-06T22:17:54.124Z,50.50
2018-08-06T22:20:23.304Z,51.20
2018-08-06T22:22:52.997Z,50.30
2018-08-06T22:25:22.405Z,50.70
2018-08-06T22:27:51.594Z,51.00
2018-08-06T22:30:20.761Z,52.00
2018-08-06T22:32:49.927Z,51.00
2018-08-06T22:35:19.473Z,51.00
2018-08-06T22:37:48.629Z,51.80
2018-08-06T22:40:17.840Z,52.50
2018-08-06T22:42:46.965Z,51.90
2018-08-06T22:45:16.133Z,52.00
2018-08-06T22:47:45.321Z,51.70
2018-08-06T22:50:14.720Z,51.90
2018-08-06T22:52:43.965Z,52.70
2018-08-06T22:55:13.543Z,52.10
2018-08-06T22:57:43.316Z,52.70
2018-08-06T23:00:15.158Z,52.00
2018-08-06T23:02:44.675Z,53.00
2018-08-06T23:05:16.029Z,52.30
2018-08-06T23:07:45.325Z,52.60
2018-08-06T23:10:16.720Z,53.50
2018-08-06T23:12:45.904Z,52.60
2018-08-06T23:15:16.392Z,52.60
2018-08-06T23:17:45.905Z,52.80
2018-08-06T23:22:44.037Z,53.10
2018-08-06T23:25:13.213Z,52.80
2018-08-06T23:27:42.387Z,53.20
2018-08-06T23:30:14.390Z,53.60
2018-08-06T23:32:43.728Z,54.30
2018-08-06T23:35:13.861Z,54.00
2018-08-06T23:37:44.106Z,54.10
2018-08-06T23:40:14.127Z,53.70
2018-08-06T23:42:43.693Z,54.20
2018-08-06T23:45:15.245Z,54.40
2018-08-06T23:47:44.436Z,54.80
2018-08-06T23:50:15.192Z,55.20
2018-08-06T23:52:45.495Z,55.40
2018-08-06T23:55:18.529Z,55.70
2018-08-06T23:57:48.390Z,55.60
